Archival Weather

Lamerd

Lamerd, Iran (OISR)

Report from: Saturday, April 1, 2023 8:00 AM UTC
Current time: Tuesday, February 27, 2024 9:07 AM UTC

Current weather – Weather history – Daily summaries
Weather forecast

Temperature29.0°C (84.2°F)
Heat index28.6°C (83.5°F)
Dew point13.0°C (55.4°F)
Winds 6 kts (3.1 m/s, 6.9 mph) Northwest (310°)
Clouds Sky clear
Altimeter29.90 in.Hg (1013 mB)
Relative humidity37 %
Density altitude1,842 ft. (561 m)
Remarks Ceiling and visibility OK
No significant changes expected in the next two hours
Flight conditions Visual Meteorological Conditions
Raw dataOISR 010800Z 31006KT CAVOK 29/13 Q1012 A2990 NOSIG
An error has occurred. This application may no longer respond until reloaded. Reload 🗙